Strona główna
METAR-TAF:

METAR-TAF

Lotnisko :

Port lotniczy Münster/Osnabrück

Münster-Osnabrück, Niemcy

Szerokość geograficzna: 52-08N, Długość geograficzna: 007-42E, wysokość: 48 m

Aktualna obserwacja pogody

Raport powstał 33 minut temu, godzina 19:50 UTC
Wiatr 5 kt od północny zachód, zmienny między zachód i północ
Temperatura 16°C
Wilgotność 63%
Ciśnienie 1018 hPa
Widzialność 10 km lub więcej
Mało chmury na wysokości 4200 ft

METAR: EDDG 151950Z 32005KT 280V350 9999 FEW042 16/09 Q1018 NOSIG

czas: 22:23 (20:23 UTC)

Prognoza

Raport powstał 3 godziny i 23 minut temu, godzina 17:00 UTC
Prognoza ważna od 15 godzina 18 UTC do 16 godzina 18 UTC
Wiatr 6 kt od zachodnio-północny zachód
Widzialność 10 km lub więcej
Przerywane chmury na wysokości 3000 ft
Prawdopodobieństwo 30% :
Przejściowo
od 16 godzina 05 UTC do 16 godzina 09 UTC
Przerywane chmury na wysokości 1200 ft

TAF: EDDG 151700Z 1518/1618 29006KT 9999 BKN030 PROB30 TEMPO 1605/1609 BKN012

Obserwacja i prognoza pogody dla ponad 4000 lotnisk (raport METAR i TAF).

Dostępne stacje oznaczono żółtymi i czerwonymi punktami na mapie.

Najedź kursorem aby zobaczyć nazwę stacji.

Kliknij aby zobaczyć obserwacje i prognozy pogody.

Aby zmienić mapę: kliknij na zielony przycisk z czarnym krzyżykiem, aby powiększyć; na zielony przycisk z myślnikiem, aby pomniejszyć; na zielone strzałki, aby przejść do map sąsiednich.


METAR-TAF: